Time;durP1;ratioP1;P1;durP2;ratioP2;P2;SDS_P1;SDS_P2;PMS_P1;PMS_P2;Temp;Humidity;BMP_temperature;BMP_pressure;BME280_temperature;BME280_humidity;BME280_pressure;Samples;Min_cycle;Max_cycle;Signal;HPM_P1;HPM_P2
2022/11/20 00:01:23;;;;;;;34.80;19.88;;;3.50;99.90;;;;;;5069027;28;20021;-71
2022/11/20 00:03:50;;;;;;;32.53;18.70;;;3.60;99.90;;;;;;5050725;28;20904;-71
2022/11/20 00:06:18;;;;;;;33.08;17.88;;;3.50;99.90;;;;;;5068184;28;20042;-70
2022/11/20 00:08:45;;;;;;;31.33;17.65;;;3.50;99.90;;;;;;5050236;28;20032;-71
2022/11/20 00:11:18;;;;;;;24.52;15.10;;;3.50;99.90;;;;;;5068497;28;20025;-71
2022/11/20 00:13:45;;;;;;;24.30;15.88;;;3.50;99.90;;;;;;5068388;28;20510;-71
2022/11/20 00:16:14;;;;;;;26.73;16.98;;;3.40;99.90;;;;;;5068229;28;20059;-71
2022/11/20 00:18:42;;;;;;;29.52;15.93;;;3.40;99.90;;;;;;5068412;28;20055;-71
2022/11/20 00:21:11;;;;;;;25.75;14.85;;;3.40;99.90;;;;;;5049958;28;20024;-71
2022/11/20 00:23:37;;;;;;;23.08;15.25;;;3.40;99.90;;;;;;5066953;28;20075;-71
2022/11/20 00:26:08;;;;;;;24.10;14.43;;;3.40;99.90;;;;;;5066584;28;20067;-71
2022/11/20 00:28:34;;;;;;;22.98;14.20;;;3.50;99.90;;;;;;5049069;28;20032;-71
2022/11/20 00:31:20;;;;;;;30.08;15.38;;;3.40;99.90;;;;;;5065998;28;20027;-71
2022/11/20 00:33:46;;;;;;;21.25;11.63;;;3.40;99.90;;;;;;5066908;28;20498;-71
2022/11/20 00:36:17;;;;;;;20.33;11.55;;;3.40;99.90;;;;;;5068593;28;20039;-71
2022/11/20 00:38:44;;;;;;;20.17;10.07;;;3.40;99.90;;;;;;5060546;28;20063;-71
2022/11/20 00:41:15;;;;;;;18.42;10.02;;;3.30;99.90;;;;;;5064466;28;20033;-71
2022/11/20 00:43:41;;;;;;;15.82;8.90;;;3.30;99.90;;;;;;5055098;28;20036;-71
2022/11/20 00:46:15;;;;;;;20.88;10.75;;;3.30;99.90;;;;;;5049167;28;20124;-71
2022/11/20 00:48:41;;;;;;;16.80;9.68;;;3.40;99.90;;;;;;5061963;28;20031;-71
2022/11/20 00:51:07;;;;;;;19.33;12.15;;;3.50;99.90;;;;;;5055953;28;20078;-70
2022/11/20 00:53:33;;;;;;;23.48;12.98;;;3.50;99.90;;;;;;5066237;28;20048;-71
2022/11/20 00:56:03;;;;;;;20.23;11.57;;;3.60;99.90;;;;;;5065298;28;20394;-71
2022/11/20 00:58:34;;;;;;;27.27;16.55;;;3.60;99.90;;;;;;5066692;28;20035;-71
2022/11/20 01:01:14;;;;;;;29.90;16.75;;;3.70;99.90;;;;;;5059746;28;20040;-71
2022/11/20 01:03:42;;;;;;;27.75;15.43;;;3.70;99.90;;;;;;5065258;28;20115;-71
2022/11/20 01:06:15;;;;;;;29.70;17.98;;;3.70;99.90;;;;;;5067241;28;20085;-70
2022/11/20 01:08:41;;;;;;;30.50;18.80;;;3.80;99.90;;;;;;5066130;28;20116;-70
2022/11/20 01:11:16;;;;;;;30.42;19.15;;;3.80;99.90;;;;;;5048361;28;20059;-70
2022/11/20 01:13:42;;;;;;;31.50;18.33;;;3.80;99.90;;;;;;5048064;28;20036;-71
2022/11/20 01:16:15;;;;;;;34.85;19.88;;;3.80;99.90;;;;;;5065868;28;20027;-70
2022/11/20 01:18:43;;;;;;;34.85;19.02;;;3.80;99.90;;;;;;5061965;28;20040;-71
2022/11/20 01:21:21;;;;;;;30.65;18.55;;;3.90;99.90;;;;;;5047924;28;20032;-70
2022/11/20 01:23:47;;;;;;;31.52;20.50;;;3.90;99.90;;;;;;5066737;28;20541;-70
2022/11/20 01:26:15;;;;;;;27.30;17.48;;;4.00;99.90;;;;;;5060962;28;20133;-71
2022/11/20 01:28:41;;;;;;;32.38;17.95;;;4.00;99.90;;;;;;5063144;28;20543;-71
2022/11/20 01:31:15;;;;;;;29.65;17.40;;;4.10;99.90;;;;;;5065776;28;20044;-70
2022/11/20 01:33:43;;;;;;;30.77;18.02;;;4.10;99.90;;;;;;5065044;28;20048;-71
2022/11/20 01:36:09;;;;;;;32.47;19.92;;;4.20;99.90;;;;;;5064956;28;20130;-71
2022/11/20 01:38:35;;;;;;;26.92;16.27;;;4.20;99.90;;;;;;5048514;28;20029;-70
2022/11/20 01:41:00;;;;;;;24.50;14.60;;;4.20;99.90;;;;;;5054844;28;20454;-71
2022/11/20 01:43:28;;;;;;;25.60;13.93;;;4.30;99.90;;;;;;5062643;28;20036;-70
2022/11/20 01:46:02;;;;;;;26.75;14.88;;;4.30;99.90;;;;;;5064289;28;20024;-71
2022/11/20 01:48:52;;;;;;;24.17;13.43;;;4.40;99.90;;;;;;5047464;28;20039;-71
2022/11/20 01:51:33;;;;;;;22.35;12.75;;;4.40;99.90;;;;;;5066520;28;20032;-71
2022/11/20 01:54:03;;;;;;;26.92;13.43;;;4.50;99.90;;;;;;5064929;28;20086;-70
2022/11/20 01:56:32;;;;;;;19.73;12.05;;;4.50;99.90;;;;;;5066538;28;20028;-71
2022/11/20 01:59:01;;;;;;;23.95;14.63;;;4.60;99.90;;;;;;5066790;28;20033;-71
2022/11/20 02:01:27;;;;;;;26.10;15.90;;;4.70;99.90;;;;;;5066881;28;20540;-71
2022/11/20 02:03:53;;;;;;;31.38;16.50;;;4.70;99.90;;;;;;5049094;28;20036;-71
2022/11/20 02:06:48;;;;;;;26.58;15.02;;;4.80;99.90;;;;;;5066774;28;20037;-70
2022/11/20 02:09:14;;;;;;;32.25;18.42;;;4.80;99.90;;;;;;5066710;28;20108;-71
2022/11/20 02:11:39;;;;;;;26.40;16.05;;;4.80;99.90;;;;;;5048378;28;20106;-70
2022/11/20 02:14:05;;;;;;;31.70;17.77;;;4.90;99.90;;;;;;5065030;28;20044;-71
2022/11/20 02:16:40;;;;;;;29.05;16.73;;;4.90;99.90;;;;;;5047859;28;20043;-70
2022/11/20 02:19:12;;;;;;;29.20;17.15;;;5.00;99.90;;;;;;5048298;28;20036;-71
2022/11/20 02:21:48;;;;;;;31.08;17.33;;;5.00;99.90;;;;;;5066356;28;20043;-70
2022/11/20 02:24:16;;;;;;;28.20;17.67;;;5.10;99.90;;;;;;5066559;28;20640;-70
2022/11/20 02:26:45;;;;;;;26.23;15.25;;;5.10;99.90;;;;;;5065107;28;20522;-71
2022/11/20 02:29:11;;;;;;;30.88;17.92;;;5.20;99.90;;;;;;5065435;28;20097;-71
2022/11/20 02:31:40;;;;;;;29.77;17.52;;;5.20;99.90;;;;;;5063737;28;20040;-71
2022/11/20 02:34:06;;;;;;;26.60;17.60;;;5.20;99.90;;;;;;5064684;28;20028;-70
2022/11/20 02:36:35;;;;;;;28.95;17.30;;;5.20;99.90;;;;;;5064921;28;20035;-70
2022/11/20 02:39:01;;;;;;;30.00;18.65;;;5.10;99.90;;;;;;5065574;28;20518;-70
2022/11/20 02:41:37;;;;;;;25.73;16.20;;;5.10;99.90;;;;;;5034951;28;20045;-69
2022/11/20 02:44:04;;;;;;;33.28;17.92;;;5.10;99.90;;;;;;5055351;28;20441;-69
2022/11/20 02:46:30;;;;;;;27.67;16.95;;;5.10;99.90;;;;;;5057399;28;20029;-70
2022/11/20 02:48:56;;;;;;;25.25;16.83;;;5.10;99.90;;;;;;5064786;28;20090;-70
2022/11/20 02:51:22;;;;;;;25.00;15.50;;;5.10;99.90;;;;;;5065589;28;20456;-70
2022/11/20 02:53:47;;;;;;;27.48;17.42;;;5.10;99.90;;;;;;5037303;28;20189;-69
2022/11/20 02:56:13;;;;;;;35.30;19.60;;;5.10;99.90;;;;;;5051297;28;20020;-70
2022/11/20 02:58:39;;;;;;;30.17;17.30;;;5.10;99.90;;;;;;5068042;28;20547;-71
2022/11/20 03:01:04;;;;;;;28.35;18.13;;;5.10;99.90;;;;;;5068665;28;20111;-72
2022/11/20 03:03:30;;;;;;;33.05;19.15;;;5.10;99.90;;;;;;5068958;28;20398;-72
2022/11/20 03:05:58;;;;;;;38.97;20.45;;;5.20;99.90;;;;;;5068237;28;20052;-72
2022/11/20 03:08:23;;;;;;;32.95;19.88;;;5.10;99.90;;;;;;5069127;28;20036;-70
2022/11/20 03:10:49;;;;;;;32.67;18.20;;;5.20;99.90;;;;;;5051052;28;20036;-72
2022/11/20 03:13:14;;;;;;;30.35;17.88;;;5.20;99.90;;;;;;5068769;28;20510;-71
2022/11/20 03:15:40;;;;;;;36.67;20.60;;;5.20;99.90;;;;;;5069120;28;20029;-71
2022/11/20 03:18:06;;;;;;;37.15;21.60;;;5.20;99.90;;;;;;5064777;28;20103;-72
2022/11/20 03:20:33;;;;;;;28.40;18.00;;;5.20;99.90;;;;;;5068523;28;20040;-72
2022/11/20 03:22:59;;;;;;;31.02;18.83;;;5.20;99.90;;;;;;5050837;28;20115;-72
2022/11/20 03:25:25;;;;;;;34.95;21.70;;;5.20;99.90;;;;;;5063481;28;20319;-72
2022/11/20 03:27:51;;;;;;;40.55;22.20;;;5.30;99.90;;;;;;5070261;28;20031;-72
2022/11/20 03:30:16;;;;;;;28.65;17.13;;;5.30;99.90;;;;;;5068244;28;20385;-71
2022/11/20 03:32:42;;;;;;;33.40;20.00;;;5.30;99.90;;;;;;5068712;28;20046;-72
2022/11/20 03:35:08;;;;;;;22.02;14.88;;;5.30;99.90;;;;;;5068947;28;20024;-73
2022/11/20 03:37:34;;;;;;;23.92;16.25;;;5.30;99.90;;;;;;5068663;28;20032;-71
2022/11/20 03:39:59;;;;;;;27.75;17.05;;;5.40;99.90;;;;;;5082664;28;20109;-71
2022/11/20 03:45:09;;;;;;;32.75;17.45;;;5.50;99.90;;;;;;5069050;28;20040;-73
2022/11/20 03:47:34;;;;;;;27.63;17.00;;;5.50;99.90;;;;;;5050460;28;20028;-71
2022/11/20 03:50:00;;;;;;;25.95;16.02;;;5.60;99.90;;;;;;5067748;28;20067;-72
2022/11/20 03:52:26;;;;;;;27.67;14.07;;;5.60;99.90;;;;;;5058339;28;20028;-73
2022/11/20 03:54:51;;;;;;;23.45;14.25;;;5.60;99.90;;;;;;5068491;28;20562;-72
2022/11/20 03:57:17;;;;;;;28.85;17.75;;;5.70;99.90;;;;;;5069247;28;20047;-72
2022/11/20 03:59:42;;;;;;;25.70;14.85;;;5.80;99.90;;;;;;5068950;28;20032;-70
2022/11/20 04:02:08;;;;;;;22.20;14.15;;;5.90;99.90;;;;;;5050891;28;20033;-72
2022/11/20 04:04:33;;;;;;;27.00;14.25;;;6.00;99.90;;;;;;5069040;28;20222;-72
2022/11/20 04:06:59;;;;;;;25.15;15.35;;;6.00;99.90;;;;;;5049133;28;20028;-73
2022/11/20 04:09:25;;;;;;;25.27;14.77;;;6.10;99.90;;;;;;5068451;28;20035;-73
2022/11/20 04:11:50;;;;;;;27.00;15.00;;;6.10;99.90;;;;;;5068273;28;20114;-72
2022/11/20 04:14:16;;;;;;;23.63;14.00;;;6.10;99.90;;;;;;5068421;28;20032;-72
2022/11/20 04:16:42;;;;;;;29.70;15.50;;;6.20;99.90;;;;;;5050336;28;20394;-72
2022/11/20 04:19:14;;;;;;;23.75;13.57;;;6.20;99.90;;;;;;5050492;28;20028;-72
2022/11/20 04:21:41;;;;;;;24.95;13.02;;;6.30;99.90;;;;;;5050455;28;20213;-72
2022/11/20 04:24:07;;;;;;;18.58;10.50;;;6.40;99.90;;;;;;5050081;28;20135;-71
2022/11/20 04:26:33;;;;;;;23.23;12.40;;;6.50;99.90;;;;;;5050291;28;20155;-72
2022/11/20 04:29:02;;;;;;;23.65;11.10;;;6.60;99.90;;;;;;5067367;28;20033;-72
2022/11/20 04:31:30;;;;;;;25.73;11.63;;;6.70;99.90;;;;;;5067154;28;20032;-71
2022/11/20 04:34:00;;;;;;;23.73;11.48;;;6.80;99.90;;;;;;5049293;28;20045;-72
2022/11/20 04:36:27;;;;;;;15.48;9.77;;;6.90;99.90;;;;;;5049657;28;20604;-72
2022/11/20 04:38:54;;;;;;;24.98;9.20;;;6.90;99.90;;;;;;5067629;28;20056;-70
2022/11/20 04:41:21;;;;;;;22.05;11.32;;;7.00;99.90;;;;;;5068485;28;20033;-71
2022/11/20 04:43:48;;;;;;;20.75;9.25;;;7.10;99.90;;;;;;5065544;28;20052;-72
2022/11/20 04:46:15;;;;;;;19.45;8.95;;;7.10;99.90;;;;;;5078695;28;20055;-70
2022/11/20 04:48:41;;;;;;;14.82;6.38;;;7.20;99.90;;;;;;5074828;28;20494;-71
2022/11/20 04:51:06;;;;;;;10.82;4.28;;;7.30;99.90;;;;;;5067795;28;20106;-72
2022/11/20 04:53:32;;;;;;;14.18;5.25;;;7.40;99.90;;;;;;5067135;28;20067;-71
2022/11/20 04:56:03;;;;;;;17.25;7.32;;;7.60;99.90;;;;;;5067284;28;20108;-71
2022/11/20 04:58:29;;;;;;;13.02;6.28;;;7.70;99.90;;;;;;5067626;28;20071;-71
2022/11/20 05:01:04;;;;;;;15.00;5.75;;;7.60;99.90;;;;;;5046607;28;20059;-71
2022/11/20 05:03:30;;;;;;;15.90;7.07;;;7.70;99.90;;;;;;5066412;28;20033;-72
2022/11/20 05:05:56;;;;;;;13.52;6.75;;;7.70;99.90;;;;;;5067057;28;20033;-71
2022/11/20 05:08:22;;;;;;;13.27;6.25;;;7.70;99.90;;;;;;5067233;28;20102;-71
2022/11/20 05:10:48;;;;;;;12.57;5.55;;;7.70;99.90;;;;;;5066726;28;20028;-72
2022/11/20 05:13:13;;;;;;;9.02;3.45;;;7.70;99.90;;;;;;5067139;28;20056;-70
2022/11/20 05:15:39;;;;;;;6.80;1.40;;;7.80;99.90;;;;;;5048448;28;20035;-71
2022/11/20 05:18:04;;;;;;;7.30;1.33;;;8.00;99.90;;;;;;5066250;28;20024;-72
2022/11/20 05:20:30;;;;;;;4.70;1.58;;;8.40;99.90;;;;;;5065217;28;20039;-72
2022/11/20 05:22:59;;;;;;;8.57;1.35;;;8.60;99.90;;;;;;5057250;28;20809;-72
2022/11/20 05:25:25;;;;;;;8.38;1.23;;;8.90;99.90;;;;;;5060830;28;20040;-73
2022/11/20 05:27:50;;;;;;;10.30;1.60;;;9.10;99.90;;;;;;5049296;28;20047;-72
2022/11/20 05:30:16;;;;;;;8.50;1.50;;;9.20;99.90;;;;;;5065142;28;20471;-73
2022/11/20 05:32:41;;;;;;;8.88;1.40;;;9.20;99.90;;;;;;5065767;28;20040;-72
2022/11/20 05:35:07;;;;;;;10.52;1.13;;;9.20;99.90;;;;;;5064488;28;20363;-76
2022/11/20 05:37:33;;;;;;;9.93;2.03;;;9.20;99.90;;;;;;5077761;28;20032;-73
2022/11/20 05:39:59;;;;;;;6.88;1.27;;;9.30;99.90;;;;;;5066604;28;20033;-73
2022/11/20 05:42:30;;;;;;;8.75;1.15;;;9.30;99.90;;;;;;5055624;28;20028;-75
2022/11/20 05:44:57;;;;;;;8.95;1.00;;;9.30;99.90;;;;;;5066740;28;20036;-74
2022/11/20 05:47:23;;;;;;;8.50;1.20;;;9.40;99.90;;;;;;5066145;28;20028;-75
2022/11/20 05:49:49;;;;;;;9.07;1.15;;;9.40;99.90;;;;;;5047884;28;20113;-74
2022/11/20 05:52:14;;;;;;;8.88;1.33;;;9.40;99.90;;;;;;5066075;28;20041;-71
2022/11/20 05:54:40;;;;;;;6.95;1.23;;;9.40;99.90;;;;;;5067200;28;20037;-73
2022/11/20 05:57:05;;;;;;;8.38;1.58;;;9.40;99.90;;;;;;5066989;28;20111;-72
2022/11/20 05:59:31;;;;;;;10.27;1.63;;;9.50;99.90;;;;;;5065995;28;20026;-72
2022/11/20 06:01:57;;;;;;;8.60;1.58;;;9.50;99.90;;;;;;5065612;28;20056;-70
2022/11/20 06:04:22;;;;;;;7.97;1.70;;;9.60;99.90;;;;;;5047848;28;20063;-73
2022/11/20 06:06:48;;;;;;;9.73;1.20;;;9.60;99.90;;;;;;5047978;28;20123;-70
2022/11/20 06:09:13;;;;;;;10.68;1.33;;;9.70;99.90;;;;;;5066375;28;20040;-72
2022/11/20 06:11:39;;;;;;;6.43;1.13;;;9.70;99.90;;;;;;5065594;28;20036;-72
2022/11/20 06:14:04;;;;;;;8.23;1.23;;;9.60;99.90;;;;;;5064958;28;20474;-74
2022/11/20 06:16:30;;;;;;;8.30;1.30;;;9.60;99.90;;;;;;5065485;28;20041;-74
2022/11/20 06:18:55;;;;;;;6.47;1.45;;;9.70;99.90;;;;;;5066205;28;20035;-73
2022/11/20 06:21:22;;;;;;;4.72;1.15;;;9.70;99.90;;;;;;5047033;28;20032;-75
2022/11/20 06:23:49;;;;;;;8.10;1.20;;;9.80;99.90;;;;;;5047320;28;20036;-74
2022/11/20 06:26:18;;;;;;;4.78;0.80;;;9.80;99.90;;;;;;5044922;28;20175;-74
2022/11/20 06:28:44;;;;;;;7.83;1.40;;;9.80;99.90;;;;;;5047058;28;20032;-71
2022/11/20 06:31:13;;;;;;;5.30;0.90;;;9.80;99.90;;;;;;5062357;28;20147;-74
2022/11/20 06:33:39;;;;;;;4.35;0.80;;;9.90;99.90;;;;;;5046246;28;20047;-75
2022/11/20 06:36:05;;;;;;;5.53;1.27;;;9.90;99.90;;;;;;5064706;28;20033;-73
2022/11/20 06:38:30;;;;;;;7.07;1.08;;;9.90;99.90;;;;;;5066158;28;20383;-75
2022/11/20 06:40:56;;;;;;;5.68;0.90;;;9.90;99.90;;;;;;5046559;28;20121;-74
2022/11/20 06:43:22;;;;;;;6.57;1.02;;;9.90;99.90;;;;;;5065426;28;20032;-75
2022/11/20 06:45:55;;;;;;;7.13;0.95;;;9.90;99.90;;;;;;5060795;28;20047;-76
2022/11/20 06:48:23;;;;;;;3.65;0.77;;;10.00;99.90;;;;;;5055315;28;20029;-76
2022/11/20 06:50:48;;;;;;;4.35;0.70;;;10.00;99.90;;;;;;5048612;28;20032;-74
2022/11/20 06:53:14;;;;;;;6.85;1.00;;;10.10;99.90;;;;;;5065883;28;20045;-75
2022/11/20 06:55:44;;;;;;;3.22;0.70;;;10.10;99.90;;;;;;5060551;28;20074;-74
2022/11/20 06:58:10;;;;;;;;;;;10.10;99.90;;;;;;5060847;28;20085;-75
2022/11/20 07:00:35;;;;;;;3.67;0.80;;;10.10;99.90;;;;;;5056414;28;20003;-73
2022/11/20 07:03:05;;;;;;;5.85;0.80;;;10.20;99.90;;;;;;5061629;28;20044;-76
2022/11/20 07:05:31;;;;;;;5.50;0.75;;;10.20;99.90;;;;;;5041640;28;20028;-76
2022/11/20 07:07:57;;;;;;;3.55;0.65;;;10.20;99.90;;;;;;5065227;28;20399;-76
2022/11/20 07:10:23;;;;;;;8.20;0.98;;;10.20;99.90;;;;;;5062743;28;20060;-72
2022/11/20 07:12:53;;;;;;;5.60;0.90;;;10.30;99.90;;;;;;5065068;28;20043;-75
2022/11/20 07:15:24;;;;;;;6.80;1.00;;;10.30;99.90;;;;;;5065291;28;20067;-74
2022/11/20 07:17:49;;;;;;;5.22;0.98;;;10.40;99.90;;;;;;5075999;28;20029;-73
2022/11/20 07:20:15;;;;;;;5.05;0.90;;;10.40;99.90;;;;;;5064238;28;20094;-73
2022/11/20 07:22:41;;;;;;;4.43;1.00;;;10.40;99.90;;;;;;5065964;28;20033;-73
2022/11/20 07:25:07;;;;;;;7.07;1.10;;;10.40;99.90;;;;;;5065608;28;20137;-72
2022/11/20 07:27:34;;;;;;;5.15;1.00;;;10.50;99.90;;;;;;5065690;28;20529;-72
2022/11/20 07:30:00;;;;;;;7.28;1.50;;;10.50;99.90;;;;;;5046046;28;20036;-73
2022/11/20 07:32:25;;;;;;;5.97;1.27;;;10.50;99.90;;;;;;5045574;28;20044;-73
2022/11/20 07:34:51;;;;;;;8.60;1.92;;;10.60;99.90;;;;;;5060462;28;20304;-74
2022/11/20 07:37:18;;;;;;;9.93;1.83;;;10.70;99.90;;;;;;5058577;28;20132;-74
2022/11/20 07:39:43;;;;;;;8.10;2.00;;;10.70;99.90;;;;;;5060216;28;20024;-73
2022/11/20 07:42:09;;;;;;;9.82;1.30;;;10.70;99.90;;;;;;5061743;28;20033;-73
2022/11/20 07:44:35;;;;;;;8.38;1.20;;;10.80;99.90;;;;;;5066707;28;20081;-73
2022/11/20 07:47:01;;;;;;;8.55;1.05;;;10.80;99.90;;;;;;5065218;28;20028;-73
2022/11/20 07:49:27;;;;;;;5.55;1.02;;;10.80;99.90;;;;;;5065479;28;20081;-71
2022/11/20 07:51:53;;;;;;;7.93;0.90;;;10.90;99.90;;;;;;5063755;28;20024;-72
2022/11/20 07:54:20;;;;;;;9.38;0.98;;;10.90;99.90;;;;;;5062931;28;20382;-72
2022/11/20 07:56:46;;;;;;;6.80;1.27;;;10.90;99.90;;;;;;5066984;28;20020;-72
2022/11/20 07:59:12;;;;;;;11.18;1.63;;;11.00;99.90;;;;;;5066228;28;20093;-74
2022/11/20 08:01:41;;;;;;;7.88;0.80;;;11.00;99.90;;;;;;5065819;28;20032;-71
2022/11/20 08:04:07;;;;;;;5.97;1.17;;;11.10;99.90;;;;;;5066673;28;20094;-71
2022/11/20 08:06:33;;;;;;;6.03;0.90;;;11.10;99.90;;;;;;5065312;28;20044;-71
2022/11/20 08:08:59;;;;;;;10.00;1.10;;;11.10;99.90;;;;;;5063147;28;20108;-72
2022/11/20 08:14:15;;;;;;;12.93;1.23;;;11.10;99.90;;;;;;5061719;28;20619;-71
2022/11/20 08:16:46;;;;;;;8.15;1.25;;;11.20;99.90;;;;;;5045813;28;20025;-70
2022/11/20 08:19:12;;;;;;;10.80;1.58;;;11.20;99.90;;;;;;5065918;28;20037;-71
2022/11/20 08:21:38;;;;;;;8.88;2.00;;;11.20;99.90;;;;;;5041417;28;20140;-70
2022/11/20 08:24:05;;;;;;;11.20;1.52;;;11.20;99.90;;;;;;5065181;28;20140;-72
2022/11/20 08:26:30;;;;;;;9.02;1.63;;;11.30;99.90;;;;;;5067122;28;20039;-72
2022/11/20 08:28:57;;;;;;;9.32;1.38;;;11.40;99.90;;;;;;5066851;28;20040;-72
2022/11/20 08:31:24;;;;;;;4.88;0.70;;;11.40;99.90;;;;;;5067025;28;20043;-72
2022/11/20 08:33:50;;;;;;;3.75;0.70;;;11.30;99.90;;;;;;5067138;28;20040;-72
2022/11/20 08:36:16;;;;;;;0.55;0.28;;;11.10;99.90;;;;;;5067133;28;20086;-71
2022/11/20 08:38:41;;;;;;;4.53;0.50;;;10.90;99.90;;;;;;5049203;28;20107;-72
2022/11/20 08:41:26;;;;;;;1.95;0.40;;;10.80;99.90;;;;;;5065938;28;20060;-73
2022/11/20 08:43:55;;;;;;;2.95;0.43;;;10.70;99.90;;;;;;5063315;28;20036;-73
2022/11/20 08:46:22;;;;;;;1.15;0.30;;;10.60;99.90;;;;;;5049532;28;20033;-73
2022/11/20 08:48:48;;;;;;;1.20;0.30;;;10.70;99.90;;;;;;5046684;28;20036;-72
2022/11/20 08:51:13;;;;;;;1.98;0.40;;;10.80;99.90;;;;;;5063018;28;20471;-72
2022/11/20 08:53:39;;;;;;;1.45;0.40;;;10.90;99.90;;;;;;5054479;28;20150;-71
2022/11/20 08:56:05;;;;;;;3.17;0.75;;;11.00;99.90;;;;;;5088438;28;20028;-71
2022/11/20 08:58:31;;;;;;;1.88;0.40;;;11.30;99.90;;;;;;5077456;28;20044;-71
2022/11/20 09:00:57;;;;;;;1.42;0.32;;;11.70;99.90;;;;;;5062736;28;20032;-72
2022/11/20 09:03:23;;;;;;;2.25;0.40;;;11.90;99.90;;;;;;5046723;28;20073;-71
2022/11/20 09:05:48;;;;;;;1.77;0.40;;;12.10;99.90;;;;;;5064871;28;20051;-73
2022/11/20 09:08:14;;;;;;;3.00;0.40;;;12.10;99.90;;;;;;5046074;28;20064;-74
2022/11/20 09:10:40;;;;;;;4.53;0.82;;;12.40;99.90;;;;;;5063853;28;20566;-72
2022/11/20 09:13:06;;;;;;;2.50;0.70;;;12.80;99.90;;;;;;5039651;28;20044;-71
2022/11/20 09:15:32;;;;;;;3.65;0.90;;;12.70;99.90;;;;;;5063401;28;20549;-73
2022/11/20 09:18:03;;;;;;;3.67;0.80;;;12.60;99.90;;;;;;5061160;28;20062;-73
2022/11/20 09:20:30;;;;;;;3.78;0.70;;;12.60;99.90;;;;;;5063931;28;20039;-72
2022/11/20 09:22:57;;;;;;;3.83;0.70;;;12.60;99.90;;;;;;5042151;28;20033;-71
2022/11/20 09:25:22;;;;;;;3.45;0.70;;;12.60;99.90;;;;;;5045434;28;20090;-71
2022/11/20 09:27:54;;;;;;;5.18;1.15;;;12.70;99.90;;;;;;5067401;28;20024;-71
2022/11/20 09:30:20;;;;;;;4.18;0.80;;;12.60;99.90;;;;;;5058459;28;20044;-71
2022/11/20 09:32:45;;;;;;;6.35;0.88;;;12.40;99.90;;;;;;5066442;28;20040;-71
2022/11/20 09:35:11;;;;;;;7.43;1.10;;;12.60;99.90;;;;;;5066616;28;20028;-71
2022/11/20 09:37:37;;;;;;;4.97;1.17;;;12.50;99.90;;;;;;5066729;28;20123;-72
2022/11/20 09:40:03;;;;;;;5.43;1.15;;;12.40;99.90;;;;;;5064392;28;20108;-72
2022/11/20 09:42:41;;;;;;;8.30;1.25;;;12.00;99.90;;;;;;5046475;28;20032;-71
2022/11/20 09:45:22;;;;;;;6.97;1.30;;;12.00;99.90;;;;;;5063370;28;20032;-72
2022/11/20 09:48:01;;;;;;;8.05;1.40;;;11.90;99.90;;;;;;5064064;28;20025;-72
2022/11/20 09:50:57;;;;;;;5.82;2.00;;;11.80;99.90;;;;;;5065189;28;20028;-71
2022/11/20 09:53:48;;;;;;;7.55;1.30;;;11.90;99.90;;;;;;5062914;28;20044;-70
2022/11/20 09:56:14;;;;;;;4.30;1.30;;;12.10;99.90;;;;;;5060926;28;20032;-71
2022/11/20 09:58:44;;;;;;;8.27;1.27;;;12.40;99.90;;;;;;5063555;28;20454;-71
2022/11/20 10:01:26;;;;;;;7.30;1.23;;;12.60;99.90;;;;;;5045916;28;20039;-71
2022/11/20 10:04:10;;;;;;;7.88;1.30;;;12.40;99.90;;;;;;5063065;28;20116;-71
2022/11/20 10:07:00;;;;;;;8.45;1.20;;;12.30;99.90;;;;;;5044383;28;20051;-72
2022/11/20 10:09:33;;;;;;;;;;;12.40;99.90;;;;;;5065536;28;20095;-73
2022/11/20 10:12:25;;;;;;;10.15;1.58;;;12.70;99.90;;;;;;5063626;28;19978;-73
2022/11/20 10:15:19;;;;;;;6.13;1.23;;;12.50;99.90;;;;;;5045838;28;20482;-73
2022/11/20 10:18:17;;;;;;;9.02;1.42;;;12.30;99.90;;;;;;5063234;28;20444;-72
2022/11/20 10:21:13;;;;;;;6.47;1.60;;;11.90;99.90;;;;;;5062896;28;20032;-73
2022/11/20 10:23:59;;;;;;;9.95;1.55;;;11.50;99.90;;;;;;5062556;28;20595;-73
2022/11/20 10:27:01;;;;;;;11.10;1.85;;;11.30;99.90;;;;;;5059124;28;20028;-72
2022/11/20 10:29:34;;;;;;;7.03;1.60;;;11.10;99.90;;;;;;5024855;28;20043;-72
2022/11/20 10:32:10;;;;;;;9.50;1.85;;;11.20;99.90;;;;;;5064008;28;20024;-71
2022/11/20 10:34:48;;;;;;;11.73;1.45;;;11.30;99.90;;;;;;5045131;28;20033;-73
2022/11/20 10:37:25;;;;;;;8.23;1.65;;;11.40;99.90;;;;;;5063799;28;20032;-73
2022/11/20 10:39:54;;;;;;;8.88;1.63;;;11.50;99.90;;;;;;5044586;28;20101;-72
2022/11/20 10:42:56;;;;;;;9.97;1.70;;;11.60;99.90;;;;;;5075673;28;20040;-71
2022/11/20 10:45:25;;;;;;;10.27;1.73;;;11.70;99.90;;;;;;5032044;28;20051;-73
2022/11/20 10:48:17;;;;;;;9.15;1.58;;;11.80;99.90;;;;;;5086714;28;20090;-73
2022/11/20 10:51:02;;;;;;;11.20;2.03;;;11.80;99.90;;;;;;5052528;28;20033;-72
2022/11/20 10:53:44;;;;;;;14.00;2.03;;;11.90;99.90;;;;;;5065130;28;20071;-72
2022/11/20 10:56:18;;;;;;;16.75;1.90;;;12.20;99.90;;;;;;5064801;28;20482;-71
2022/11/20 10:58:49;;;;;;;9.00;1.75;;;12.90;99.90;;;;;;5069602;28;20032;-73
2022/11/20 11:01:18;;;;;;;11.77;2.05;;;13.60;99.90;;;;;;5046512;28;20375;-70
2022/11/20 11:03:44;;;;;;;10.95;1.73;;;13.40;99.90;;;;;;5063967;28;20040;-73
2022/11/20 11:06:28;;;;;;;9.98;1.90;;;12.80;99.90;;;;;;5063904;28;20035;-71
2022/11/20 11:08:58;;;;;;;18.13;2.72;;;12.30;99.90;;;;;;5063806;28;20082;-69
2022/11/20 11:11:29;;;;;;;11.93;2.33;;;12.00;99.90;;;;;;5062994;28;20036;-71
2022/11/20 11:14:05;;;;;;;14.52;2.88;;;11.90;99.90;;;;;;5062719;28;20049;-71
2022/11/20 11:16:30;;;;;;;12.35;2.28;;;11.80;99.90;;;;;;5068361;28;20039;-74
2022/11/20 11:19:14;;;;;;;9.63;2.30;;;11.80;99.90;;;;;;5065430;28;20029;-71
2022/11/20 11:21:47;;;;;;;11.75;1.80;;;11.70;99.90;;;;;;5075868;28;20060;-72
2022/11/20 11:24:22;;;;;;;15.20;2.58;;;11.70;99.90;;;;;;5068427;28;20028;-73
2022/11/20 11:27:17;;;;;;;12.75;2.25;;;11.70;99.90;;;;;;5051560;28;20039;-70
2022/11/20 11:29:42;;;;;;;8.32;1.73;;;11.60;99.90;;;;;;5065158;28;20048;-70
2022/11/20 11:32:20;;;;;;;8.57;1.60;;;11.60;99.90;;;;;;5069413;28;20036;-71
2022/11/20 11:34:59;;;;;;;11.50;1.77;;;11.40;99.90;;;;;;5065486;28;20033;-72
2022/11/20 11:37:33;;;;;;;13.23;2.10;;;11.20;99.90;;;;;;5060484;28;20085;-72
2022/11/20 11:39:59;;;;;;;16.42;3.92;;;11.00;99.90;;;;;;5066428;28;20265;-73
2022/11/20 11:42:25;;;;;;;15.43;3.22;;;10.80;99.90;;;;;;5066203;28;20813;-73
2022/11/20 11:45:06;;;;;;;12.00;2.45;;;10.70;99.90;;;;;;5068465;28;20099;-72
2022/11/20 11:47:36;;;;;;;11.88;2.28;;;10.70;99.90;;;;;;5049462;28;20032;-71
2022/11/20 11:50:13;;;;;;;13.88;2.38;;;10.80;99.90;;;;;;5046516;28;20033;-72
2022/11/20 11:53:10;;;;;;;13.77;2.05;;;11.00;99.90;;;;;;5064327;28;20033;-71
2022/11/20 11:55:47;;;;;;;16.63;2.90;;;11.10;99.90;;;;;;5055935;28;20032;-73
2022/11/20 11:58:25;;;;;;;14.73;2.58;;;11.20;99.90;;;;;;5067321;28;20403;-72
2022/11/20 12:01:15;;;;;;;14.32;2.60;;;11.40;99.90;;;;;;5066055;28;20028;-73
2022/11/20 12:03:44;;;;;;;13.68;2.17;;;11.50;99.90;;;;;;5065049;28;20037;-71
2022/11/20 12:06:18;;;;;;;14.43;2.83;;;11.50;99.90;;;;;;5064814;28;20433;-71
2022/11/20 12:08:57;;;;;;;15.55;2.58;;;11.50;99.90;;;;;;5059609;28;20031;-72
2022/11/20 12:11:58;;;;;;;12.43;2.37;;;11.50;99.90;;;;;;5068785;28;20035;-72
2022/11/20 12:14:35;;;;;;;15.90;2.72;;;11.50;99.90;;;;;;5065800;28;20024;-73
2022/11/20 12:17:01;;;;;;;21.58;3.30;;;11.50;99.90;;;;;;5066158;28;20059;-71
2022/11/20 12:19:34;;;;;;;16.42;2.38;;;11.50;99.90;;;;;;5066213;28;20024;-71
2022/11/20 12:22:06;;;;;;;13.93;2.45;;;11.50;99.90;;;;;;5048064;28;20056;-72
2022/11/20 12:24:44;;;;;;;15.65;2.60;;;11.50;99.90;;;;;;5065619;28;20033;-71
2022/11/20 12:27:18;;;;;;;16.67;2.42;;;11.50;99.90;;;;;;5064849;28;20032;-72
2022/11/20 12:30:12;;;;;;;16.23;2.38;;;11.60;99.90;;;;;;5060098;28;20052;-71
2022/11/20 12:33:19;;;;;;;17.35;2.90;;;11.60;99.90;;;;;;5063508;28;20044;-73
2022/11/20 12:36:15;;;;;;;12.63;2.70;;;11.60;99.90;;;;;;5035644;28;20047;-72
2022/11/20 12:38:59;;;;;;;14.85;2.70;;;11.60;99.90;;;;;;5040347;28;20064;-72
2022/11/20 12:45:14;;;;;;;14.43;2.60;;;11.70;99.90;;;;;;5064561;28;20039;-73
2022/11/20 12:47:42;;;;;;;14.90;2.47;;;11.70;99.90;;;;;;5059468;28;20043;-72
2022/11/20 12:50:20;;;;;;;15.48;2.40;;;11.80;99.90;;;;;;5063747;28;20470;-71
2022/11/20 12:53:00;;;;;;;14.27;2.38;;;11.80;99.90;;;;;;5059487;28;20064;-72
2022/11/20 12:55:42;;;;;;;12.77;2.45;;;11.90;99.90;;;;;;5065302;28;20039;-71
2022/11/20 12:58:36;;;;;;;16.92;2.53;;;11.90;99.90;;;;;;5065373;28;20032;-72
2022/11/20 13:01:39;;;;;;;11.63;2.15;;;11.90;99.90;;;;;;5013110;28;20094;-71
2022/11/20 13:04:33;;;;;;;10.75;2.15;;;11.90;99.90;;;;;;5052414;28;20047;-72
2022/11/20 13:07:03;;;;;;;15.60;2.63;;;12.00;99.90;;;;;;5064102;28;20068;-72
2022/11/20 13:09:29;;;;;;;13.55;2.97;;;12.00;99.90;;;;;;5064826;28;20533;-71